aviador You're here:

KEUG Decoded Metar

EUGENE in OR, USA
Report Time2017-03-23 01:54:00
UTC Time2017-03-23 02:14:54
Flight Rules vfr VFR
Wind280° at 06 kt
W.Decomp.*RWY 34: 1.5 kt HW 5.8 kt LCW
W.Rank280° ranks 23
Current wind is below 280° avg. (6.3)
Visibility9999 m
Phenomena:N/A
Clouds:Few 033 Hf
Broken 046 Hf
Expected CloudBase > 2,400 ft AGL from Temp-Dew spread
Ceiling4,600 ft
Temp10°C (ISA -4)
Dew Point04°C (67% RH)
AAT6.5°C
QNH1019 hPa
Density Alt-226 ft
Elevation374 ft
Report Wrong Elevation
Raw Report
KEUG 230154Z 28006KT 10SM FEW033 BKN046 10/04 A3010=

Extra information for KEUG:More info

Metar Taf Metar & Taf Last 4 Metars F.Rules Stats Wind Profile Meteogram Temp Stats Airport Information Weather charts Add Link Nearby VenuesMetar ALERT Operation Metar Decoded Social comments

AIRNAV info for KEUG